This is the latest recevied weather packets stored in our database for station/object BMCB-9. If no packets are shown the sender has not sent any weather packets the latest 10 day(s).
| Time | Temp. | Humidity | Pressure | Rain* | Wind** | Luminosity | Snow |
|---|---|---|---|---|---|---|---|
| 1777691455 | 11.11° C | 74% | 1020.2 hPa | 0 mm | - | 0 W/m² | - |
| 1777690856 | 11.11° C | 75% | 1020.2 hPa | 0 mm | - | 0 W/m² | - |
| 1777684254 | 8.33° C | 81% | 1020.7 hPa | 0 mm | - | 0 W/m² | - |
| 1777683656 | 8.33° C | 81% | 1020.7 hPa | 0 mm | - | 0 W/m² | - |
| 1777683056 | 8.33° C | 81% | 1020.7 hPa | 0 mm | - | 0 W/m² | - |
| 1777675857 | 8.89° C | 76% | 1021.4 hPa | 0 mm | - | 0 W/m² | - |
| 1777675257 | 8.89° C | 75% | 1021.6 hPa | 0 mm | - | 0 W/m² | - |
| 1777670457 | 10.56° C | 68% | 1021.7 hPa | 0 mm | - | 0 W/m² | - |
| 1777664459 | 13.89° C | 58% | 1021.5 hPa | 0 mm | - | 0 W/m² | - |
| 1777659658 | 17.78° C | 43% | 1020.7 hPa | 0 mm | - | 8 W/m² | - |
| 1777656658 | 21.67° C | 25% | 1020.3 hPa | 0 mm | - | 28 W/m² | - |
| 1777653655 | 25° C | 22% | 1020.2 hPa | 0 mm | - | 142 W/m² | - |
| 1777649455 | 25° C | 21% | 1020.5 hPa | 0 mm | - | 224 W/m² | - |
| 1777645855 | 25° C | 24% | 1021.1 hPa | 0 mm | - | 284 W/m² | - |
| 1777626656 | 17.22° C | 30% | 1024 hPa | 0 mm | - | 326 W/m² | - |
| 1777625456 | 16.11° C | 32% | 1024.1 hPa | 0 mm | - | 42 W/m² | - |
| 1777623057 | 14.44° C | 35% | 1024.2 hPa | 0 mm | - | 144 W/m² | - |
| 1777617657 | 10.56° C | 48% | 1024.3 hPa | 0 mm | - | 66 W/m² | - |
| 1777615255 | 6.67° C | 68% | 1024.2 hPa | 0 mm | - | 20 W/m² | - |
| 1777605055 | 3.89° C | 74% | 1024.1 hPa | 0 mm | - | 0 W/m² | - |
| 1777602054 | 5° C | 73% | 1024.1 hPa | 0 mm | - | 0 W/m² | - |
| 1777600855 | 5° C | 70% | 1024.2 hPa | 0 mm | - | 0 W/m² | - |
| 1777599054 | 5.56° C | 66% | 1024.4 hPa | 0 mm | - | 0 W/m² | - |
| 1777598454 | 6.11° C | 66% | 1024.4 hPa | 0 mm | - | 0 W/m² | - |
| 1777592456 | 6.67° C | 64% | 1024.5 hPa | 0 mm | - | 0 W/m² | - |
* Rain latest hour (hover to see other rain measurements)
** Current wind speed in m/s (hover to see current wind gust speed)